Time;durP1;ratioP1;P1;durP2;ratioP2;P2;SDS_P1;SDS_P2;PMS_P1;PMS_P2;Temp;Humidity;BMP_temperature;BMP_pressure;BME280_temperature;BME280_humidity;BME280_pressure;Samples;Min_cycle;Max_cycle;Signal;HPM_P1;HPM_P2
2023/09/13 06:22:03;;;;;;;;;;;17.80;99.90;;;;;;5118132;27;20406;-82
2023/09/13 06:24:28;;;;;;;9.43;4.88;;;17.80;99.90;;;;;;5118837;27;19911;-83
2023/09/13 06:26:54;;;;;;;7.00;4.53;;;17.80;99.90;;;;;;5120840;27;20061;-80
2023/09/13 06:29:21;;;;;;;5.05;4.00;;;17.80;99.90;;;;;;5115245;27;20072;-81
2023/09/13 06:31:48;;;;;;;5.60;3.97;;;17.80;99.90;;;;;;5120573;27;20035;-80
2023/09/13 06:34:13;;;;;;;9.05;4.47;;;17.80;99.90;;;;;;5121596;28;20440;-81
2023/09/13 06:36:40;;;;;;;5.57;4.03;;;17.90;99.90;;;;;;5115669;28;20050;-80
2023/09/13 06:39:06;;;;;;;4.85;3.40;;;17.80;99.90;;;;;;5120260;28;20020;-81
2023/09/13 06:41:32;;;;;;;6.43;4.15;;;17.80;99.90;;;;;;5120281;28;20035;-80
2023/09/13 06:43:57;;;;;;;6.43;3.42;;;17.90;99.90;;;;;;5119749;28;20115;-80
2023/09/13 06:46:23;;;;;;;6.43;3.45;;;17.80;99.90;;;;;;5106995;28;20050;-80
2023/09/13 06:48:50;;;;;;;5.68;3.65;;;17.80;99.90;;;;;;5119680;28;20015;-81
2023/09/13 06:51:16;;;;;;;4.72;3.60;;;17.90;99.90;;;;;;5119057;28;20449;-81
2023/09/13 06:53:42;;;;;;;10.07;4.18;;;17.80;99.90;;;;;;5112453;28;20046;-81
2023/09/13 06:56:08;;;;;;;6.53;3.88;;;17.90;99.90;;;;;;5121749;28;20043;-80
2023/09/13 06:58:35;;;;;;;3.45;3.15;;;17.90;99.90;;;;;;5109292;28;20054;-80
2023/09/13 07:01:01;;;;;;;5.63;3.80;;;17.90;99.90;;;;;;5113824;28;20051;-81
2023/09/13 07:03:26;;;;;;;4.88;3.28;;;17.80;99.90;;;;;;5117528;28;20477;-81
2023/09/13 07:05:55;;;;;;;3.42;3.08;;;17.80;99.90;;;;;;5102225;28;20048;-81
2023/09/13 07:08:24;;;;;;;6.53;3.38;;;17.80;99.90;;;;;;5120495;28;20051;-82
2023/09/13 07:10:50;;;;;;;5.85;3.05;;;17.80;99.90;;;;;;5120725;28;20102;-81
2023/09/13 07:13:16;;;;;;;5.07;3.42;;;17.80;99.90;;;;;;5119761;28;20027;-81
2023/09/13 07:15:43;;;;;;;3.35;3.00;;;17.90;99.90;;;;;;5112124;28;20115;-81
2023/09/13 07:18:08;;;;;;;6.65;3.42;;;17.90;99.90;;;;;;5115107;28;20469;-81
2023/09/13 07:20:34;;;;;;;7.47;2.95;;;17.90;99.90;;;;;;5115579;28;20165;-80
2023/09/13 07:23:00;;;;;;;13.32;5.60;;;17.90;99.90;;;;;;5121313;28;20106;-81
2023/09/13 07:25:26;;;;;;;5.72;3.35;;;18.00;99.90;;;;;;5113114;28;20027;-82
2023/09/13 07:27:52;;;;;;;6.50;3.50;;;18.00;99.90;;;;;;5120109;28;20058;-81
2023/09/13 07:30:18;;;;;;;4.38;2.97;;;18.00;99.90;;;;;;5118151;28;20499;-81
2023/09/13 07:32:49;;;;;;;6.72;3.25;;;18.00;99.90;;;;;;5103742;28;20024;-82
2023/09/13 07:35:14;;;;;;;4.97;2.80;;;18.10;99.90;;;;;;5101949;28;20020;-82
2023/09/13 07:37:43;;;;;;;3.95;2.75;;;18.10;99.90;;;;;;5104075;28;20087;-83
2023/09/13 07:40:11;;;;;;;4.32;2.80;;;18.20;99.90;;;;;;5107861;28;20028;-81
2023/09/13 07:42:36;;;;;;;7.97;2.00;;;18.30;99.90;;;;;;5105253;28;20023;-81
2023/09/13 07:45:02;;;;;;;6.53;2.20;;;18.40;99.90;;;;;;5104345;28;20023;-82
2023/09/13 07:47:28;;;;;;;4.30;2.08;;;18.50;99.90;;;;;;5103153;28;20114;-82
2023/09/13 07:49:55;;;;;;;3.78;2.20;;;18.60;99.90;;;;;;5100483;28;20028;-81
2023/09/13 07:52:20;;;;;;;1.92;1.80;;;18.60;99.90;;;;;;5105157;28;20065;-82
2023/09/13 07:54:46;;;;;;;2.25;2.05;;;18.60;99.90;;;;;;5106723;28;20480;-82
2023/09/13 07:57:12;;;;;;;3.60;2.13;;;18.70;99.90;;;;;;5103991;28;20024;-81
2023/09/13 07:59:38;;;;;;;2.50;2.30;;;18.70;99.90;;;;;;5098573;28;20028;-82
2023/09/13 08:02:04;;;;;;;7.07;2.22;;;18.70;99.90;;;;;;5098093;28;20619;-82
2023/09/13 08:04:33;;;;;;;4.90;1.95;;;18.80;99.90;;;;;;5104968;28;20077;-83
2023/09/13 08:07:00;;;;;;;3.97;2.45;;;18.80;99.90;;;;;;5106014;28;20177;-82
2023/09/13 08:09:26;;;;;;;5.53;2.70;;;18.80;99.90;;;;;;5106834;28;20056;-82
2023/09/13 08:11:52;;;;;;;1.98;1.88;;;18.80;99.90;;;;;;5106928;28;20381;-82
2023/09/13 08:14:19;;;;;;;2.38;2.13;;;18.70;99.90;;;;;;5106256;28;20039;-82
2023/09/13 08:16:45;;;;;;;4.22;2.70;;;18.70;99.90;;;;;;5085461;28;20037;-82
2023/09/13 08:19:11;;;;;;;3.90;2.40;;;18.80;99.90;;;;;;5099907;28;20525;-82
2023/09/13 08:21:37;;;;;;;2.67;2.35;;;18.80;99.90;;;;;;5103264;28;20047;-82
2023/09/13 08:24:04;;;;;;;3.85;2.67;;;18.70;99.90;;;;;;5106656;28;20028;-82
2023/09/13 08:26:30;;;;;;;5.30;2.72;;;18.80;99.90;;;;;;5105035;28;20024;-82
2023/09/13 08:28:56;;;;;;;3.70;2.53;;;18.80;99.90;;;;;;5098004;28;20465;-85
2023/09/13 08:31:25;;;;;;;4.38;2.55;;;18.80;99.90;;;;;;5100791;28;20477;-82
2023/09/13 08:33:52;;;;;;;5.95;2.20;;;18.80;99.90;;;;;;5096874;28;20869;-82
2023/09/13 08:36:18;;;;;;;4.70;2.47;;;18.80;99.90;;;;;;5100189;28;20016;-83
2023/09/13 08:38:44;;;;;;;2.20;2.03;;;18.80;99.90;;;;;;5106701;28;20042;-85
2023/09/13 08:41:11;;;;;;;3.88;2.83;;;18.80;99.90;;;;;;5103151;28;20039;-84
2023/09/13 08:43:38;;;;;;;2.80;2.42;;;18.80;99.90;;;;;;5101389;28;20023;-83
2023/09/13 08:46:06;;;;;;;3.60;2.55;;;18.80;99.90;;;;;;5104381;28;20058;-83
2023/09/13 08:48:34;;;;;;;2.47;2.28;;;18.80;99.90;;;;;;5105962;28;20084;-83
2023/09/13 08:51:02;;;;;;;10.95;4.13;;;18.80;99.90;;;;;;5096719;28;20114;-83
2023/09/13 08:53:29;;;;;;;13.40;3.50;;;18.80;99.90;;;;;;5103270;28;20032;-82
2023/09/13 08:55:55;;;;;;;9.57;3.90;;;18.80;99.90;;;;;;5104082;28;20039;-83
2023/09/13 08:58:22;;;;;;;6.95;4.20;;;18.80;99.90;;;;;;5103492;28;20022;-83
2023/09/13 09:00:51;;;;;;;13.00;3.58;;;18.90;99.90;;;;;;5105280;28;20042;-83
2023/09/13 09:03:21;;;;;;;9.77;4.82;;;18.90;99.90;;;;;;5106148;28;20030;-84
2023/09/13 09:05:47;;;;;;;8.82;3.50;;;18.90;99.90;;;;;;5100442;28;20239;-84
2023/09/13 09:08:13;;;;;;;3.80;3.05;;;19.00;99.90;;;;;;5104233;28;20039;-83
2023/09/13 09:10:41;;;;;;;3.55;2.60;;;18.90;99.90;;;;;;5103648;28;20024;-83
2023/09/13 09:13:11;;;;;;;6.85;3.20;;;19.00;99.90;;;;;;5106151;28;20365;-82
2023/09/13 09:15:39;;;;;;;5.95;3.63;;;19.00;99.90;;;;;;5104916;28;20384;-83
2023/09/13 09:18:09;;;;;;;8.00;3.78;;;19.00;99.90;;;;;;5099876;28;20050;-83
2023/09/13 09:20:38;;;;;;;7.03;3.72;;;19.00;99.90;;;;;;5100685;28;20473;-84
2023/09/13 09:23:08;;;;;;;7.28;3.50;;;19.00;99.90;;;;;;5097919;28;20362;-85
2023/09/13 09:25:38;;;;;;;3.17;2.85;;;19.00;99.90;;;;;;5105251;28;20391;-84
2023/09/13 09:28:05;;;;;;;5.15;3.35;;;19.00;99.90;;;;;;5101136;28;20024;-83
2023/09/13 09:30:32;;;;;;;4.25;2.60;;;19.00;99.90;;;;;;5102774;28;20036;-84
2023/09/13 09:33:06;;;;;;;4.05;2.85;;;19.00;99.90;;;;;;5102950;28;20037;-84
2023/09/13 09:35:32;;;;;;;4.50;2.70;;;19.00;99.90;;;;;;5102219;28;20543;-84
2023/09/13 09:37:58;;;;;;;5.80;2.85;;;19.00;99.90;;;;;;5103054;28;20085;-84
2023/09/13 09:40:24;;;;;;;3.38;2.70;;;19.10;99.90;;;;;;5085149;28;20043;-84
2023/09/13 09:42:57;;;;;;;4.15;2.60;;;19.20;99.90;;;;;;5104957;28;20028;-84
2023/09/13 09:45:23;;;;;;;5.13;2.55;;;19.20;99.90;;;;;;5103064;28;20024;-85
2023/09/13 09:47:50;;;;;;;2.60;2.40;;;19.20;99.90;;;;;;5103834;28;20100;-85
2023/09/13 09:50:17;;;;;;;5.85;2.90;;;19.20;99.90;;;;;;5103171;28;20031;-84
2023/09/13 09:52:48;;;;;;;5.10;2.10;;;19.20;99.90;;;;;;5094350;28;20023;-85
2023/09/13 09:55:15;;;;;;;3.45;2.38;;;19.30;99.90;;;;;;5102918;28;20058;-86
2023/09/13 09:57:48;;;;;;;3.38;2.85;;;19.30;99.90;;;;;;5104845;28;20023;-84
2023/09/13 10:00:15;;;;;;;3.35;2.38;;;19.30;99.90;;;;;;5103936;28;20047;-85
2023/09/13 10:02:43;;;;;;;2.72;2.53;;;19.30;99.90;;;;;;5102121;28;20047;-83
2023/09/13 10:05:09;;;;;;;3.42;2.60;;;19.40;99.90;;;;;;5102305;28;20042;-84
2023/09/13 10:07:55;;;;;;;3.22;2.92;;;19.50;99.90;;;;;;5101479;28;20027;-84
2023/09/13 10:10:34;;;;;;;2.85;2.08;;;19.60;99.90;;;;;;5104762;28;20028;-82
2023/09/13 10:13:00;;;;;;;4.80;2.60;;;19.70;99.90;;;;;;5094849;28;20027;-83
2023/09/13 10:15:26;;;;;;;4.90;2.90;;;19.80;99.90;;;;;;5101864;28;20030;-83
2023/09/13 10:17:55;;;;;;;7.30;3.83;;;19.80;99.90;;;;;;5094064;28;20026;-86
2023/09/13 10:20:23;;;;;;;4.18;3.13;;;19.90;99.90;;;;;;5097653;28;20090;-86
2023/09/13 10:22:50;;;;;;;5.60;3.13;;;19.90;99.90;;;;;;5094471;28;20027;-83
2023/09/13 10:25:18;;;;;;;3.60;3.25;;;19.80;99.90;;;;;;5105363;28;20027;-85
2023/09/13 10:27:51;;;;;;;5.07;3.42;;;19.80;99.90;;;;;;5102557;28;20373;-85
2023/09/13 10:30:27;;;;;;;5.40;3.38;;;19.70;99.90;;;;;;5096311;28;20384;-84
2023/09/13 10:33:03;;;;;;;6.95;3.42;;;19.60;99.90;;;;;;5098806;28;20036;-83
2023/09/13 10:35:31;;;;;;;6.57;3.30;;;19.60;99.90;;;;;;5102422;28;20110;-86
2023/09/13 10:38:12;;;;;;;3.28;2.83;;;19.60;99.90;;;;;;5105008;28;20024;-84
2023/09/13 10:40:43;;;;;;;5.13;3.08;;;19.70;99.90;;;;;;5098375;28;20502;-83
2023/09/13 10:43:09;;;;;;;3.20;2.90;;;19.70;99.90;;;;;;5103715;28;20055;-84
2023/09/13 10:45:36;;;;;;;4.40;3.00;;;19.80;99.90;;;;;;5101544;28;20065;-84
2023/09/13 10:48:04;;;;;;;3.35;2.92;;;19.90;99.90;;;;;;5101757;28;20031;-85
2023/09/13 10:50:31;;;;;;;4.13;2.83;;;20.10;99.90;;;;;;5082979;28;20217;-84
2023/09/13 10:52:59;;;;;;;3.50;3.20;;;20.20;99.90;;;;;;5097924;28;20289;-83
2023/09/13 10:55:26;;;;;;;3.85;2.60;;;20.20;99.90;;;;;;5103995;28;20664;-84
2023/09/13 10:57:53;;;;;;;3.35;2.35;;;20.20;99.90;;;;;;5095962;28;20032;-83
2023/09/13 11:00:19;;;;;;;4.72;2.90;;;20.10;99.90;;;;;;5102531;28;20434;-83
2023/09/13 11:02:45;;;;;;;6.78;3.00;;;20.10;99.90;;;;;;5101236;28;20031;-85
2023/09/13 11:05:13;;;;;;;6.20;2.53;;;20.20;99.90;;;;;;5098736;28;20028;-83
2023/09/13 11:07:46;;;;;;;3.53;2.83;;;20.20;99.90;;;;;;5099953;28;20058;-84
2023/09/13 11:10:20;;;;;;;2.63;2.42;;;20.10;99.90;;;;;;5105094;28;20053;-84
2023/09/13 11:12:49;;;;;;;5.85;2.90;;;20.10;99.90;;;;;;5102156;28;20097;-84
2023/09/13 11:15:19;;;;;;;6.32;3.47;;;20.10;99.90;;;;;;5107878;28;20384;-84
2023/09/13 11:17:44;;;;;;;4.68;2.97;;;20.20;99.90;;;;;;5105597;28;20035;-84
2023/09/13 11:20:37;;;;;;;3.70;3.25;;;20.20;99.90;;;;;;5106311;28;20055;-83
2023/09/13 11:23:09;;;;;;;3.55;2.92;;;20.20;99.90;;;;;;5093098;28;20032;-83
2023/09/13 11:25:40;;;;;;;3.20;2.85;;;20.20;99.90;;;;;;5104842;28;20148;-82
2023/09/13 11:28:08;;;;;;;5.32;2.78;;;20.20;99.90;;;;;;5107445;28;20034;-85
2023/09/13 11:30:50;;;;;;;3.85;3.10;;;20.20;99.90;;;;;;5079779;28;20031;-84
2023/09/13 11:33:15;;;;;;;4.05;2.83;;;20.30;99.90;;;;;;5107306;27;20030;-84
2023/09/13 11:35:43;;;;;;;3.03;2.55;;;20.30;99.90;;;;;;5108586;28;20024;-84
2023/09/13 11:38:10;;;;;;;5.80;2.88;;;20.30;99.90;;;;;;5104607;28;20020;-82
2023/09/13 11:40:37;;;;;;;3.72;2.92;;;20.30;99.90;;;;;;5100403;27;20062;-83
2023/09/13 11:43:03;;;;;;;4.57;3.03;;;20.30;99.90;;;;;;5104629;28;20024;-83
2023/09/13 11:45:33;;;;;;;4.93;2.97;;;20.30;99.90;;;;;;5106963;28;20028;-83
2023/09/13 11:48:00;;;;;;;5.38;3.33;;;20.20;99.90;;;;;;5087950;28;20115;-83
2023/09/13 11:50:38;;;;;;;2.92;2.60;;;20.20;99.90;;;;;;5106279;28;20021;-83
2023/09/13 11:53:12;;;;;;;2.92;2.70;;;20.20;99.90;;;;;;5107186;27;20032;-82
2023/09/13 11:55:42;;;;;;;3.95;2.90;;;20.20;99.90;;;;;;5105206;28;20460;-82
2023/09/13 11:58:14;;;;;;;2.97;2.55;;;20.20;99.90;;;;;;5104199;28;20361;-83
2023/09/13 12:00:41;;;;;;;4.75;2.70;;;20.20;99.90;;;;;;5102341;27;20126;-83
2023/09/13 12:03:07;;;;;;;4.82;2.50;;;20.20;99.90;;;;;;5106482;28;20050;-83
2023/09/13 12:05:33;;;;;;;5.20;2.70;;;20.20;99.90;;;;;;5107056;28;20439;-83
2023/09/13 12:08:00;;;;;;;4.20;2.40;;;20.30;99.90;;;;;;5106749;28;20035;-82
2023/09/13 12:10:30;;;;;;;4.07;3.03;;;20.30;99.90;;;;;;5107405;28;20527;-82
2023/09/13 12:12:56;;;;;;;4.80;2.60;;;20.30;99.90;;;;;;5097415;27;20529;-83
2023/09/13 12:15:25;;;;;;;8.40;2.85;;;20.30;99.90;;;;;;5107525;28;20378;-84
2023/09/13 12:17:50;;;;;;;2.78;2.25;;;20.40;99.90;;;;;;5105051;27;20034;-83
2023/09/13 12:20:16;;;;;;;3.20;2.70;;;20.40;99.90;;;;;;5104202;28;20130;-83
2023/09/13 12:22:42;;;;;;;3.00;2.70;;;20.40;99.90;;;;;;5105366;28;20035;-84
2023/09/13 12:25:13;;;;;;;3.67;2.85;;;20.40;99.90;;;;;;5109758;28;20480;-83
2023/09/13 12:27:40;;;;;;;2.55;2.33;;;20.40;99.90;;;;;;5103065;28;20115;-84
2023/09/13 12:30:08;;;;;;;2.45;2.22;;;20.50;99.90;;;;;;5108496;28;20028;-83
2023/09/13 12:32:34;;;;;;;8.05;2.60;;;20.50;99.90;;;;;;5105561;28;20058;-83
2023/09/13 12:35:01;;;;;;;9.38;2.78;;;20.50;99.90;;;;;;5103611;28;20067;-84
2023/09/13 12:37:26;;;;;;;2.92;2.70;;;20.60;99.90;;;;;;5107943;28;20099;-82
2023/09/13 12:39:52;;;;;;;4.03;2.92;;;20.60;99.90;;;;;;5106908;27;20035;-83
2023/09/13 12:42:18;;;;;;;4.70;3.15;;;20.60;99.90;;;;;;5102936;28;20024;-82
2023/09/13 12:44:47;;;;;;;3.80;2.67;;;20.60;99.90;;;;;;5100863;28;20024;-82
2023/09/13 12:47:17;;;;;;;4.22;3.25;;;20.60;99.90;;;;;;5102250;27;20086;-82
2023/09/13 12:49:43;;;;;;;4.68;3.08;;;20.70;99.90;;;;;;5101876;28;20123;-84
2023/09/13 12:52:09;;;;;;;3.10;2.75;;;20.90;99.90;;;;;;5103595;28;20106;-85
2023/09/13 12:54:35;;;;;;;3.67;2.40;;;21.00;99.90;;;;;;5099422;28;20069;-82
2023/09/13 12:57:03;;;;;;;6.53;2.95;;;21.20;99.90;;;;;;5104984;28;20112;-83
2023/09/13 12:59:46;;;;;;;3.90;2.80;;;21.20;99.90;;;;;;5105416;27;20024;-82
2023/09/13 13:02:19;;;;;;;5.20;2.90;;;21.20;99.90;;;;;;5091368;28;20913;-84
2023/09/13 13:04:46;;;;;;;3.67;2.60;;;21.20;99.90;;;;;;5099359;28;20024;-83
2023/09/13 13:07:22;;;;;;;5.70;3.20;;;21.10;99.90;;;;;;5099017;28;20038;-83
2023/09/13 13:09:52;;;;;;;2.90;2.70;;;21.10;99.90;;;;;;5100801;28;20028;-82
2023/09/13 13:12:18;;;;;;;6.18;3.13;;;21.00;99.90;;;;;;5100694;28;20496;-82
2023/09/13 13:14:51;;;;;;;7.78;3.33;;;21.00;99.90;;;;;;5105395;27;20032;-84
2023/09/13 13:17:17;;;;;;;3.88;2.60;;;21.00;99.90;;;;;;5085886;28;20035;-83
2023/09/13 13:19:43;;;;;;;3.55;3.17;;;21.00;99.90;;;;;;5104969;27;20469;-83
2023/09/13 13:22:16;;;;;;;16.85;3.28;;;21.00;99.90;;;;;;5103671;28;20043;-86
2023/09/13 13:24:42;;;;;;;7.20;2.40;;;21.10;99.90;;;;;;5096155;28;20023;-82
2023/09/13 13:27:08;;;;;;;4.15;3.10;;;21.30;99.90;;;;;;5102659;28;20080;-82
2023/09/13 13:29:41;;;;;;;7.07;2.70;;;21.40;99.90;;;;;;5102596;28;20224;-82
2023/09/13 13:32:07;;;;;;;6.75;3.05;;;21.40;99.90;;;;;;5105694;28;20084;-82
2023/09/13 13:34:33;;;;;;;3.58;2.42;;;21.40;99.90;;;;;;5104961;28;20478;-82
2023/09/13 13:36:58;;;;;;;3.97;2.63;;;21.30;99.90;;;;;;5102922;27;20031;-81
2023/09/13 13:39:24;;;;;;;6.20;3.45;;;21.30;99.90;;;;;;5106616;28;20023;-82
2023/09/13 13:41:50;;;;;;;7.43;2.97;;;21.30;99.90;;;;;;5106328;28;20067;-81
2023/09/13 13:44:17;;;;;;;2.67;2.47;;;21.30;99.90;;;;;;5107502;27;20019;-82
2023/09/13 13:46:43;;;;;;;4.05;3.00;;;21.40;99.90;;;;;;5090484;28;20353;-83
2023/09/13 13:49:11;;;;;;;3.58;2.90;;;21.30;99.90;;;;;;5107445;27;20032;-82
2023/09/13 13:51:37;;;;;;;3.47;2.63;;;21.40;99.90;;;;;;5106565;28;20038;-81
2023/09/13 13:54:04;;;;;;;2.95;2.60;;;21.40;99.90;;;;;;5107536;27;20462;-81
2023/09/13 13:56:31;;;;;;;3.40;3.05;;;21.30;99.90;;;;;;5107689;28;20031;-82
2023/09/13 13:58:57;;;;;;;4.90;2.65;;;21.30;99.90;;;;;;5084125;28;20078;-82
2023/09/13 14:01:23;;;;;;;6.30;3.05;;;21.30;99.90;;;;;;5106591;28;20063;-79
2023/09/13 14:03:48;;;;;;;4.45;3.22;;;21.40;99.90;;;;;;5100832;28;20070;-81
2023/09/13 14:06:14;;;;;;;4.15;3.40;;;21.40;99.90;;;;;;5106794;28;20059;-82
2023/09/13 14:08:40;;;;;;;7.97;3.17;;;21.50;99.90;;;;;;5104919;28;20468;-82
2023/09/13 14:11:07;;;;;;;4.63;3.53;;;21.60;99.90;;;;;;5107143;28;20030;-84
2023/09/13 14:13:32;;;;;;;6.30;4.03;;;21.80;99.90;;;;;;5105016;28;20031;-82
2023/09/13 14:15:58;;;;;;;4.43;3.75;;;21.90;99.90;;;;;;5106386;28;20496;-81
2023/09/13 14:18:24;;;;;;;8.75;4.78;;;21.70;99.90;;;;;;5098226;28;20024;-79
2023/09/13 14:20:49;;;;;;;8.85;4.80;;;21.60;99.90;;;;;;5101945;28;20055;-82
2023/09/13 14:23:15;;;;;;;4.22;3.83;;;21.40;99.90;;;;;;5109227;28;20080;-84
2023/09/13 14:25:44;;;;;;;4.90;3.92;;;21.30;99.90;;;;;;5105942;28;20468;-83
2023/09/13 14:28:13;;;;;;;8.07;4.10;;;21.10;99.90;;;;;;5107395;28;20028;-81
2023/09/13 14:30:41;;;;;;;6.63;5.18;;;21.00;99.90;;;;;;5106148;28;20114;-82
2023/09/13 14:33:07;;;;;;;7.35;5.15;;;20.80;99.90;;;;;;5098217;28;20072;-82
2023/09/13 14:35:34;;;;;;;6.25;4.90;;;20.70;99.90;;;;;;5102605;28;20032;-82
2023/09/13 14:37:59;;;;;;;6.15;4.63;;;20.70;99.90;;;;;;5105825;28;20129;-81
2023/09/13 14:40:27;;;;;;;6.63;3.75;;;20.60;99.90;;;;;;5103217;28;20150;-82
2023/09/13 14:42:52;;;;;;;4.78;3.90;;;20.50;99.90;;;;;;5101769;28;20024;-83
2023/09/13 14:45:18;;;;;;;6.78;4.30;;;20.40;99.90;;;;;;5103350;27;20023;-82
2023/09/13 14:47:43;;;;;;;7.57;4.15;;;20.30;99.90;;;;;;5106841;28;20026;-82
2023/09/13 14:50:09;;;;;;;5.07;4.20;;;20.30;99.90;;;;;;5111084;28;20026;-83
2023/09/13 14:52:38;;;;;;;4.25;2.67;;;20.30;99.90;;;;;;5108996;28;20020;-82
2023/09/13 14:55:05;;;;;;;2.55;2.35;;;20.10;99.90;;;;;;5109315;28;20361;-81
2023/09/13 14:57:32;;;;;;;3.88;2.25;;;20.10;99.90;;;;;;5110008;28;20109;-82
2023/09/13 14:59:58;;;;;;;3.00;2.22;;;20.00;99.90;;;;;;5109741;28;20428;-83
2023/09/13 15:02:24;;;;;;;4.32;2.63;;;19.90;99.90;;;;;;5110591;27;20027;-81
2023/09/13 15:04:52;;;;;;;4.07;2.25;;;19.80;99.90;;;;;;5106051;28;20046;-83
2023/09/13 15:07:19;;;;;;;3.83;2.55;;;19.80;99.90;;;;;;5109049;28;20080;-83
2023/09/13 15:09:46;;;;;;;4.85;3.22;;;19.70;99.90;;;;;;5107959;28;20047;-84
2023/09/13 15:12:31;;;;;;;9.48;3.97;;;19.70;99.90;;;;;;5108289;28;20027;-84
2023/09/13 15:15:00;;;;;;;4.97;3.30;;;19.70;99.90;;;;;;5102154;28;20046;-82
2023/09/13 15:17:27;;;;;;;5.30;3.22;;;19.60;99.90;;;;;;5111043;27;20038;-83
2023/09/13 15:19:53;;;;;;;5.60;3.17;;;19.60;99.90;;;;;;5100702;28;20032;-82
2023/09/13 15:22:18;;;;;;;2.75;2.55;;;19.60;99.90;;;;;;5108321;28;20039;-82
2023/09/13 15:24:44;;;;;;;6.57;3.80;;;19.60;99.90;;;;;;5108739;28;20023;-82
2023/09/13 15:27:09;;;;;;;7.60;4.18;;;19.60;99.90;;;;;;5109087;28;20116;-81
2023/09/13 15:29:35;;;;;;;4.45;3.40;;;19.60;99.90;;;;;;5107972;28;20024;-84
2023/09/13 15:32:01;;;;;;;7.45;4.35;;;19.60;99.90;;;;;;5107680;27;20031;-83
2023/09/13 15:34:26;;;;;;;5.90;4.30;;;19.50;99.90;;;;;;5108774;28;20031;-82
2023/09/13 15:36:53;;;;;;;8.90;5.20;;;19.50;99.90;;;;;;5104783;28;20531;-83
2023/09/13 15:39:19;;;;;;;11.07;8.38;;;19.40;99.90;;;;;;5108256;28;20059;-82
2023/09/13 15:41:45;;;;;;;12.50;8.27;;;19.40;99.90;;;;;;5108982;28;20412;-82
2023/09/13 15:44:10;;;;;;;12.93;10.52;;;19.30;99.90;;;;;;5105280;28;20031;-81
2023/09/13 15:46:36;;;;;;;13.68;10.68;;;19.20;99.90;;;;;;5107847;28;20023;-82
2023/09/13 15:49:02;;;;;;;13.48;10.95;;;19.00;99.90;;;;;;5107250;28;20115;-83
2023/09/13 15:51:28;;;;;;;20.40;13.55;;;18.90;99.90;;;;;;5107866;27;20062;-81
2023/09/13 15:53:53;;;;;;;23.58;16.45;;;18.70;99.90;;;;;;5108850;28;20118;-83
2023/09/13 15:56:19;;;;;;;29.08;19.77;;;18.60;99.90;;;;;;5105060;28;20024;-86
2023/09/13 15:58:45;;;;;;;29.35;19.88;;;18.50;99.90;;;;;;5106575;28;20020;-80
2023/09/13 16:01:10;;;;;;;34.63;22.85;;;18.40;99.90;;;;;;5105901;28;20039;-80
2023/09/13 16:03:36;;;;;;;35.38;21.52;;;18.20;99.90;;;;;;5109564;28;20400;-83
2023/09/13 16:06:02;;;;;;;33.63;20.08;;;18.00;99.90;;;;;;5106138;28;20023;-78
2023/09/13 16:08:28;;;;;;;30.63;19.95;;;17.80;99.90;;;;;;5102422;27;20038;-81
2023/09/13 16:10:54;;;;;;;35.80;21.17;;;17.60;99.90;;;;;;5105479;28;20031;-80
2023/09/13 16:13:20;;;;;;;35.58;17.50;;;17.30;99.90;;;;;;5106168;28;20099;-82
2023/09/13 16:15:46;;;;;;;24.90;16.65;;;17.20;99.90;;;;;;5108367;28;20501;-82
2023/09/13 16:18:12;;;;;;;27.52;16.15;;;17.10;99.90;;;;;;5108607;28;20046;-81
2023/09/13 16:20:37;;;;;;;27.65;17.20;;;17.00;99.90;;;;;;5106662;28;20559;-81
2023/09/13 16:23:04;;;;;;;33.17;17.52;;;16.90;99.90;;;;;;5108171;28;20046;-83
2023/09/13 16:25:30;;;;;;;23.67;13.93;;;16.80;99.90;;;;;;5105351;27;20316;-89
2023/09/13 16:27:57;;;;;;;25.48;13.30;;;16.80;99.90;;;;;;5106245;28;20080;-83
2023/09/13 16:30:23;;;;;;;29.08;14.27;;;16.80;99.90;;;;;;5106120;27;20059;-81
2023/09/13 16:32:53;;;;;;;22.20;12.77;;;16.80;99.90;;;;;;5105228;28;20485;-82
2023/09/13 16:35:19;;;;;;;21.15;12.75;;;16.70;99.90;;;;;;5105574;28;20059;-82
2023/09/13 16:37:45;;;;;;;19.40;11.77;;;16.70;99.90;;;;;;5100297;28;20080;-83
2023/09/13 16:40:11;;;;;;;19.17;11.95;;;16.60;99.90;;;;;;5104180;28;20076;-83
2023/09/13 16:42:37;;;;;;;16.42;11.13;;;16.60;99.90;;;;;;5100618;28;20056;-85
2023/09/13 16:45:15;;;;;;;17.92;9.73;;;16.70;99.90;;;;;;5102391;27;20459;-87
2023/09/13 16:47:40;;;;;;;13.88;8.93;;;16.60;99.90;;;;;;5103458;28;20557;-82
2023/09/13 16:50:07;;;;;;;13.65;7.80;;;16.50;99.90;;;;;;5098779;27;20063;-81
2023/09/13 16:52:33;;;;;;;12.88;6.68;;;16.40;99.90;;;;;;5101089;28;20055;-81
2023/09/13 16:54:59;;;;;;;9.45;6.03;;;16.40;99.90;;;;;;5102071;27;20471;-82
2023/09/13 16:57:24;;;;;;;11.90;6.95;;;16.30;99.90;;;;;;5103733;28;20517;-83
2023/09/13 16:59:50;;;;;;;6.22;4.88;;;16.20;99.90;;;;;;5104987;28;20472;-82
2023/09/13 17:02:16;;;;;;;13.73;5.03;;;16.20;99.90;;;;;;5106888;28;20023;-83
2023/09/13 17:04:41;;;;;;;9.85;4.43;;;16.10;99.90;;;;;;5105795;28;20080;-90
2023/09/13 17:07:09;;;;;;;7.68;4.07;;;16.10;99.90;;;;;;5107097;28;20038;-82
2023/09/13 17:09:34;;;;;;;5.97;3.45;;;16.10;99.90;;;;;;5101074;28;20032;-80
2023/09/13 17:12:01;;;;;;;7.82;3.63;;;16.00;99.90;;;;;;5103187;28;20407;-83
2023/09/13 17:14:27;;;;;;;6.05;3.63;;;15.90;99.90;;;;;;5101113;28;20034;-82
2023/09/13 17:16:52;;;;;;;9.38;4.40;;;15.90;99.90;;;;;;5105744;27;20036;-84
2023/09/13 17:19:18;;;;;;;9.02;4.30;;;15.80;99.90;;;;;;5106702;28;20024;-82
2023/09/13 17:21:44;;;;;;;4.80;3.50;;;15.70;99.90;;;;;;5103774;28;20504;-80
2023/09/13 17:24:09;;;;;;;7.40;3.80;;;15.70;99.90;;;;;;5101593;28;20027;-81
2023/09/13 17:26:35;;;;;;;5.18;2.65;;;15.60;99.90;;;;;;5105719;28;20265;-83
2023/09/13 17:29:00;;;;;;;6.68;3.30;;;15.60;99.90;;;;;;5105110;28;20034;-86
2023/09/13 17:31:28;;;;;;;6.55;3.20;;;15.60;99.90;;;;;;5105314;28;20027;-82
2023/09/13 17:33:54;;;;;;;4.70;2.53;;;15.50;99.90;;;;;;5105666;28;20028;-83
2023/09/13 17:36:19;;;;;;;4.45;3.05;;;15.50;99.90;;;;;;5104630;28;20427;-83
2023/09/13 17:38:45;;;;;;;4.18;2.40;;;15.50;99.90;;;;;;5104119;28;20024;-83
2023/09/13 17:41:11;;;;;;;5.13;2.70;;;15.50;99.90;;;;;;5103052;27;20032;-84
2023/09/13 17:43:37;;;;;;;6.97;3.10;;;15.50;99.90;;;;;;5103981;28;20028;-86
2023/09/13 17:46:03;;;;;;;7.03;2.92;;;15.50;99.90;;;;;;5104561;28;20165;-83
2023/09/13 17:48:28;;;;;;;8.95;2.70;;;15.40;99.90;;;;;;5101649;28;20473;-84
2023/09/13 17:50:54;;;;;;;2.30;2.10;;;15.40;99.90;;;;;;5101128;28;20028;-83
2023/09/13 17:53:22;;;;;;;2.58;2.03;;;15.40;99.90;;;;;;5099059;28;20024;-82
2023/09/13 17:55:49;;;;;;;2.85;2.60;;;15.30;99.90;;;;;;5101117;28;20028;-84
2023/09/13 17:58:16;;;;;;;3.70;2.72;;;15.20;99.90;;;;;;5092472;28;20120;-85
2023/09/13 18:00:42;;;;;;;3.92;2.58;;;15.10;99.90;;;;;;5094368;28;20761;-90
2023/09/13 18:03:08;;;;;;;4.00;3.05;;;15.10;99.90;;;;;;5097792;27;20474;-82
2023/09/13 18:05:34;;;;;;;6.00;2.17;;;15.10;99.90;;;;;;5100694;27;20056;-85
2023/09/13 18:07:59;;;;;;;4.82;2.70;;;15.10;99.90;;;;;;5100978;28;20032;-82
2023/09/13 18:10:25;;;;;;;7.35;3.00;;;15.00;99.90;;;;;;5103410;28;20024;-84
2023/09/13 18:12:51;;;;;;;3.83;2.70;;;15.00;99.90;;;;;;5103120;28;20031;-82
2023/09/13 18:15:17;;;;;;;4.65;2.58;;;15.00;99.90;;;;;;5088511;28;20118;-86
2023/09/13 18:17:49;;;;;;;8.82;2.50;;;15.00;99.90;;;;;;5104357;28;20028;-84
2023/09/13 18:20:18;;;;;;;2.70;2.08;;;15.00;99.90;;;;;;5102389;28;20040;-84
2023/09/13 18:22:44;;;;;;;4.38;2.58;;;15.00;99.90;;;;;;5094071;28;20077;-85
2023/09/13 18:25:10;;;;;;;3.25;2.20;;;15.00;99.90;;;;;;5102575;28;20047;-80
2023/09/13 18:27:37;;;;;;;3.85;2.10;;;15.00;99.90;;;;;;5103376;28;20031;-83
2023/09/13 18:30:03;;;;;;;5.95;2.17;;;14.90;99.90;;;;;;5097316;28;20252;-82
2023/09/13 18:32:29;;;;;;;8.68;3.83;;;14.90;99.90;;;;;;5095399;28;20028;-87
2023/09/13 18:34:54;;;;;;;6.00;5.25;;;14.90;99.90;;;;;;5102026;28;20080;-80
2023/09/13 18:37:20;;;;;;;6.72;5.63;;;14.80;99.90;;;;;;5103526;28;20402;-82
2023/09/13 18:39:46;;;;;;;7.18;5.38;;;14.80;99.90;;;;;;5102402;28;20052;-84
2023/09/13 18:42:11;;;;;;;9.60;5.30;;;14.70;99.90;;;;;;5099195;28;20040;-84
2023/09/13 18:44:37;;;;;;;9.50;4.93;;;14.70;99.90;;;;;;5098555;28;20031;-87
2023/09/13 18:47:05;;;;;;;11.77;5.65;;;14.70;99.90;;;;;;5100923;28;20024;-80
2023/09/13 18:49:32;;;;;;;14.38;6.97;;;14.70;99.90;;;;;;5100186;28;20032;-86
2023/09/13 18:51:57;;;;;;;11.13;7.40;;;14.70;99.90;;;;;;5101333;28;20024;-84
2023/09/13 18:54:25;;;;;;;12.90;8.30;;;14.70;99.90;;;;;;5099930;28;20110;-85
2023/09/13 18:56:53;;;;;;;15.20;8.65;;;14.60;99.90;;;;;;5081706;28;20031;-88
2023/09/13 18:59:25;;;;;;;15.45;8.88;;;14.60;99.90;;;;;;5096422;28;20596;-84
2023/09/13 19:01:52;;;;;;;12.90;8.85;;;14.60;99.90;;;;;;5099260;28;20131;-84
2023/09/13 19:04:17;;;;;;;15.65;7.93;;;14.60;99.90;;;;;;5101115;28;20024;-82
2023/09/13 19:06:43;;;;;;;12.20;8.57;;;14.60;99.90;;;;;;5098062;28;20023;-82